Time;durP1;ratioP1;P1;durP2;ratioP2;P2;SDS_P1;SDS_P2;PMS_P1;PMS_P2;Temp;Humidity;BMP_temperature;BMP_pressure;BME280_temperature;BME280_humidity;BME280_pressure;Samples;Min_cycle;Max_cycle;Signal;HPM_P1;HPM_P2
2021/07/13 00:01:03;;;;;;;3.35;2.80;;;22.10;99.90;;;;;;5074304;28;20209;-65
2021/07/13 00:03:30;;;;;;;4.18;3.10;;;22.10;99.90;;;;;;5073436;28;20204;-65
2021/07/13 00:05:58;;;;;;;3.58;2.65;;;22.10;99.90;;;;;;5073193;28;20225;-66
2021/07/13 00:08:24;;;;;;;4.00;2.80;;;22.20;99.90;;;;;;5073117;28;20282;-66
2021/07/13 00:10:51;;;;;;;3.65;3.05;;;22.20;99.90;;;;;;5073051;28;20722;-65
2021/07/13 00:13:18;;;;;;;3.55;2.30;;;22.30;99.90;;;;;;5073020;28;20216;-65
2021/07/13 00:15:45;;;;;;;4.18;2.80;;;22.30;99.90;;;;;;5072684;28;20306;-65
2021/07/13 00:18:15;;;;;;;3.78;2.80;;;22.40;99.90;;;;;;5073278;28;20213;-65
2021/07/13 00:20:41;;;;;;;5.63;2.80;;;22.40;99.90;;;;;;5073675;28;20270;-65
2021/07/13 00:23:08;;;;;;;3.17;2.88;;;22.40;99.90;;;;;;5073450;28;20231;-65
2021/07/13 00:25:36;;;;;;;3.92;2.55;;;22.50;99.90;;;;;;5072305;28;20240;-65
2021/07/13 00:28:03;;;;;;;3.45;2.85;;;22.50;99.90;;;;;;5072418;28;20225;-65
2021/07/13 00:30:30;;;;;;;5.80;3.63;;;22.50;99.90;;;;;;5072480;28;20205;-65
2021/07/13 00:32:57;;;;;;;4.45;3.30;;;22.50;99.90;;;;;;5072388;28;20743;-65
2021/07/13 00:35:25;;;;;;;3.30;3.00;;;22.60;99.90;;;;;;5072259;28;20232;-64
2021/07/13 00:37:52;;;;;;;3.92;2.90;;;22.60;99.90;;;;;;5072434;28;20266;-65
2021/07/13 00:40:21;;;;;;;4.40;3.03;;;22.60;99.90;;;;;;5072759;28;20537;-65
2021/07/13 00:42:50;;;;;;;5.03;2.97;;;22.60;99.90;;;;;;5072667;28;20212;-64
2021/07/13 00:45:17;;;;;;;6.50;3.17;;;22.70;99.90;;;;;;5072820;28;20278;-64
2021/07/13 00:47:47;;;;;;;4.75;3.08;;;22.70;99.90;;;;;;5072293;28;20219;-65
2021/07/13 00:50:17;;;;;;;3.83;3.28;;;22.70;99.90;;;;;;5073064;28;20204;-64
2021/07/13 00:52:45;;;;;;;3.05;2.75;;;22.70;99.90;;;;;;5072404;28;20722;-65
2021/07/13 00:55:12;;;;;;;6.22;3.13;;;22.70;99.90;;;;;;5074653;28;20228;-65
2021/07/13 00:57:40;;;;;;;4.68;3.00;;;22.70;99.90;;;;;;5075319;28;20224;-65
2021/07/13 01:00:08;;;;;;;6.25;2.60;;;22.60;99.90;;;;;;5071591;28;20680;-65
2021/07/13 01:02:35;;;;;;;3.97;2.20;;;22.60;99.90;;;;;;5072521;28;20209;-65
2021/07/13 01:05:02;;;;;;;4.35;2.38;;;22.50;99.90;;;;;;5071893;28;20225;-65
2021/07/13 01:07:35;;;;;;;3.08;2.15;;;22.50;99.90;;;;;;5072802;28;20214;-65
2021/07/13 01:10:08;;;;;;;5.65;2.10;;;22.40;99.90;;;;;;5072716;28;20256;-65
2021/07/13 01:12:44;;;;;;;3.13;2.25;;;22.30;99.90;;;;;;5072629;28;20219;-65
2021/07/13 01:15:13;;;;;;;3.78;1.80;;;22.20;99.90;;;;;;5072415;28;20224;-65
2021/07/13 01:17:48;;;;;;;3.15;1.52;;;22.10;99.90;;;;;;5072449;28;20212;-65
2021/07/13 01:21:01;;;;;;;3.05;1.98;;;22.00;99.90;;;;;;5072264;28;20423;-65
2021/07/13 01:23:41;;;;;;;5.00;2.08;;;21.80;99.90;;;;;;5071682;28;20664;-65
2021/07/13 01:26:17;;;;;;;4.05;1.83;;;21.70;99.90;;;;;;5072077;28;20232;-65
2021/07/13 01:28:49;;;;;;;2.97;1.85;;;21.70;99.90;;;;;;5071983;28;20302;-65
2021/07/13 01:31:18;;;;;;;3.20;1.90;;;21.70;99.90;;;;;;5071945;28;20208;-65
2021/07/13 01:33:51;;;;;;;3.60;2.00;;;21.70;99.90;;;;;;5071260;28;20213;-65
2021/07/13 01:36:24;;;;;;;5.28;1.98;;;21.50;99.90;;;;;;5072142;28;20712;-65
2021/07/13 01:38:53;;;;;;;4.95;2.10;;;21.30;99.90;;;;;;5071428;28;20258;-65
2021/07/13 01:41:23;;;;;;;3.22;1.75;;;21.20;99.90;;;;;;5071450;28;20204;-66
2021/07/13 01:43:52;;;;;;;5.22;2.10;;;21.10;99.90;;;;;;5071217;28;20200;-65
2021/07/13 01:46:21;;;;;;;3.63;1.80;;;21.10;99.90;;;;;;5071119;28;20232;-65
2021/07/13 01:48:51;;;;;;;2.63;2.13;;;20.90;99.90;;;;;;5071031;28;20224;-65
2021/07/13 01:51:19;;;;;;;5.70;2.15;;;20.90;99.90;;;;;;5071431;28;20240;-65
2021/07/13 01:53:47;;;;;;;4.20;2.00;;;20.90;99.90;;;;;;5071056;28;20213;-65
2021/07/13 01:56:15;;;;;;;3.45;2.00;;;20.90;99.90;;;;;;5071169;28;20224;-65
2021/07/13 01:58:43;;;;;;;3.05;1.80;;;20.90;99.90;;;;;;5070900;28;20197;-65
2021/07/13 02:01:14;;;;;;;4.40;2.08;;;20.90;99.90;;;;;;5071029;28;20216;-65
2021/07/13 02:03:44;;;;;;;3.00;2.05;;;21.00;99.90;;;;;;5070713;28;20204;-65
2021/07/13 02:06:11;;;;;;;3.30;1.98;;;21.10;99.90;;;;;;5070978;28;20229;-65
2021/07/13 02:08:39;;;;;;;3.30;2.13;;;21.10;99.90;;;;;;5071037;28;20224;-65
2021/07/13 02:11:08;;;;;;;3.50;1.95;;;21.10;99.90;;;;;;5070290;28;20224;-65
2021/07/13 02:13:35;;;;;;;2.38;2.17;;;21.10;99.90;;;;;;5070977;28;20205;-65
2021/07/13 02:16:02;;;;;;;2.47;1.85;;;21.20;99.90;;;;;;5070903;28;20265;-65
2021/07/13 02:18:30;;;;;;;5.60;2.72;;;21.30;99.90;;;;;;5070773;28;20215;-65
2021/07/13 02:20:57;;;;;;;7.80;2.10;;;21.30;99.90;;;;;;5070650;28;20262;-65
2021/07/13 02:23:24;;;;;;;3.75;2.30;;;21.40;99.90;;;;;;5070528;28;20205;-65
2021/07/13 02:25:55;;;;;;;3.15;2.22;;;21.40;99.90;;;;;;5070257;28;20644;-65
2021/07/13 02:28:26;;;;;;;3.10;2.00;;;21.50;99.90;;;;;;5070617;28;20205;-65
2021/07/13 02:30:58;;;;;;;3.00;2.00;;;21.50;99.90;;;;;;5070674;28;20205;-65
2021/07/13 02:33:28;;;;;;;3.67;1.90;;;21.60;99.90;;;;;;5070984;28;20254;-65
2021/07/13 02:36:02;;;;;;;4.93;2.50;;;21.60;99.90;;;;;;5070619;28;20230;-65
2021/07/13 02:38:29;;;;;;;4.30;2.50;;;21.60;99.90;;;;;;5070742;28;20205;-65
2021/07/13 02:40:57;;;;;;;4.82;2.40;;;21.60;99.90;;;;;;5070503;28;20692;-64
2021/07/13 02:43:24;;;;;;;4.60;3.10;;;21.60;99.90;;;;;;5070703;28;20205;-64
2021/07/13 02:45:52;;;;;;;4.55;2.30;;;21.60;99.90;;;;;;5070828;28;20224;-64
2021/07/13 02:48:20;;;;;;;7.82;2.40;;;21.60;99.90;;;;;;5071076;28;20570;-64
2021/07/13 02:50:48;;;;;;;3.58;2.42;;;21.50;99.90;;;;;;5070543;28;20208;-64
2021/07/13 02:53:16;;;;;;;3.75;2.60;;;21.50;99.90;;;;;;5070503;28;20235;-65
2021/07/13 02:55:46;;;;;;;9.63;2.70;;;21.50;99.90;;;;;;5070261;28;20232;-64
2021/07/13 02:58:14;;;;;;;4.03;2.50;;;21.40;99.90;;;;;;5070499;28;20224;-64
2021/07/13 03:00:41;;;;;;;4.05;2.85;;;21.40;99.90;;;;;;5070621;28;20201;-64
2021/07/13 03:03:09;;;;;;;5.15;2.65;;;21.40;99.90;;;;;;5070383;28;20212;-64
2021/07/13 03:05:36;;;;;;;5.70;2.60;;;21.40;99.90;;;;;;5070336;28;20232;-64
2021/07/13 03:08:04;;;;;;;7.13;2.92;;;21.40;99.90;;;;;;5070632;28;20558;-64
2021/07/13 03:10:33;;;;;;;6.38;2.25;;;21.40;99.90;;;;;;5070103;28;20231;-65
2021/07/13 03:13:00;;;;;;;4.18;2.28;;;21.30;99.90;;;;;;5070798;28;20209;-65
2021/07/13 03:15:30;;;;;;;3.35;1.90;;;21.30;99.90;;;;;;5069848;28;20290;-65
2021/07/13 03:17:58;;;;;;;3.80;2.15;;;21.20;99.90;;;;;;5069811;28;20296;-65
2021/07/13 03:20:27;;;;;;;4.18;2.00;;;21.10;99.90;;;;;;5070223;28;20271;-65
2021/07/13 03:22:55;;;;;;;2.63;2.30;;;21.20;99.90;;;;;;5070032;28;20669;-66
2021/07/13 03:25:26;;;;;;;3.65;1.90;;;21.20;99.90;;;;;;5103457;22;20234;-60
2021/07/13 03:27:56;;;;;;;4.82;2.00;;;21.20;99.90;;;;;;5094389;28;20185;-60
2021/07/13 03:30:23;;;;;;;3.05;2.00;;;21.10;99.90;;;;;;5094280;28;20221;-60
2021/07/13 03:32:52;;;;;;;3.65;2.25;;;21.10;99.90;;;;;;5094243;28;20208;-60
2021/07/13 03:35:20;;;;;;;4.20;1.60;;;21.00;99.90;;;;;;5094250;28;20260;-60
2021/07/13 03:37:47;;;;;;;2.83;1.70;;;20.90;99.90;;;;;;5094021;28;20204;-60
2021/07/13 03:40:15;;;;;;;9.55;1.88;;;20.90;99.90;;;;;;5093890;28;20200;-60
2021/07/13 03:42:43;;;;;;;2.80;1.88;;;20.90;99.90;;;;;;5093876;28;20285;-61
2021/07/13 03:45:16;;;;;;;4.07;1.92;;;20.90;99.90;;;;;;5093851;28;20320;-60
2021/07/13 03:47:46;;;;;;;4.47;2.38;;;20.90;99.90;;;;;;5094089;28;20193;-60
2021/07/13 03:50:13;;;;;;;5.10;3.40;;;21.00;99.90;;;;;;5094008;28;20209;-60
2021/07/13 03:52:40;;;;;;;1.75;1.40;;;21.00;99.90;;;;;;5094189;28;20277;-60
2021/07/13 03:55:07;;;;;;;1.98;1.67;;;20.80;99.90;;;;;;5093497;28;20236;-60
2021/07/13 03:57:33;;;;;;;4.70;1.65;;;20.80;99.90;;;;;;5094023;28;20216;-61
2021/07/13 04:00:00;;;;;;;3.00;1.58;;;20.80;99.90;;;;;;5093900;28;20203;-61
2021/07/13 04:02:28;;;;;;;3.92;1.83;;;20.80;99.90;;;;;;5093615;28;20208;-61
2021/07/13 04:04:55;;;;;;;4.13;2.05;;;20.80;99.90;;;;;;5093713;28;20269;-61
2021/07/13 04:07:21;;;;;;;3.45;1.73;;;20.80;99.90;;;;;;5093297;28;20204;-61
2021/07/13 04:09:48;;;;;;;4.05;1.80;;;20.70;99.90;;;;;;5093246;28;20220;-61
2021/07/13 04:12:15;;;;;;;5.63;1.60;;;20.70;99.90;;;;;;5093222;28;20212;-61
2021/07/13 04:14:41;;;;;;;4.38;2.80;;;20.60;99.90;;;;;;5093143;28;20200;-61
2021/07/13 04:17:08;;;;;;;3.22;2.00;;;20.40;99.90;;;;;;5093350;28;20204;-61
2021/07/13 04:19:36;;;;;;;5.10;1.80;;;20.30;99.90;;;;;;5093350;28;20200;-61
2021/07/13 04:22:04;;;;;;;4.55;1.85;;;20.30;99.90;;;;;;5093002;28;20204;-61
2021/07/13 04:24:30;;;;;;;4.28;1.88;;;20.30;99.90;;;;;;5092660;28;20204;-61
2021/07/13 04:26:57;;;;;;;2.67;1.58;;;20.30;99.90;;;;;;5093105;28;20208;-60
2021/07/13 04:29:24;;;;;;;4.75;1.65;;;20.30;99.90;;;;;;5093249;28;20294;-61
2021/07/13 04:31:51;;;;;;;3.08;1.42;;;20.20;99.90;;;;;;5092990;28;20204;-60
2021/07/13 04:34:17;;;;;;;2.13;1.80;;;20.10;99.90;;;;;;5092501;28;20201;-60
2021/07/13 04:36:46;;;;;;;3.90;1.85;;;19.90;99.90;;;;;;5092743;28;20316;-60
2021/07/13 04:39:12;;;;;;;2.92;1.65;;;19.90;99.90;;;;;;5092831;28;20603;-60
2021/07/13 04:41:39;;;;;;;3.50;1.83;;;19.90;99.90;;;;;;5092576;28;20675;-60
2021/07/13 04:44:06;;;;;;;8.32;4.75;;;19.90;99.90;;;;;;5092630;28;20212;-60
2021/07/13 04:46:33;;;;;;;6.68;2.50;;;20.10;99.90;;;;;;5092651;28;20220;-60
2021/07/13 04:49:00;;;;;;;2.97;1.90;;;20.10;99.90;;;;;;5092744;28;20200;-61
2021/07/13 04:51:27;;;;;;;4.07;2.40;;;20.10;99.90;;;;;;5092471;28;20676;-60
2021/07/13 04:53:55;;;;;;;3.65;1.77;;;20.00;99.90;;;;;;5092136;28;20600;-60
2021/07/13 04:56:21;;;;;;;4.95;1.73;;;20.10;99.90;;;;;;5092442;28;20442;-60
2021/07/13 04:58:48;;;;;;;4.90;1.70;;;20.30;99.90;;;;;;5092584;28;20646;-61
2021/07/13 05:01:15;;;;;;;2.78;1.75;;;20.60;99.90;;;;;;5092213;28;20204;-61
2021/07/13 05:03:42;;;;;;;1.58;1.42;;;20.80;99.90;;;;;;5092446;28;20205;-61
2021/07/13 05:06:08;;;;;;;2.60;1.50;;;21.00;99.90;;;;;;5092414;28;20273;-61
2021/07/13 05:08:35;;;;;;;2.70;1.80;;;21.20;99.90;;;;;;5092243;28;20215;-61
2021/07/13 05:11:03;;;;;;;6.50;2.30;;;21.40;99.90;;;;;;5092004;28;20718;-61
2021/07/13 05:13:30;;;;;;;4.30;1.75;;;21.60;99.90;;;;;;5092269;28;20203;-61
2021/07/13 05:15:56;;;;;;;2.13;1.63;;;21.70;99.90;;;;;;5092052;28;20730;-61
2021/07/13 05:18:23;;;;;;;3.42;2.05;;;21.80;99.90;;;;;;5092252;28;20617;-61
2021/07/13 05:20:55;;;;;;;2.90;1.60;;;22.00;99.90;;;;;;5091696;28;20694;-61
2021/07/13 05:23:22;;;;;;;4.05;2.45;;;22.00;99.90;;;;;;5091532;28;20663;-61
2021/07/13 05:25:48;;;;;;;4.35;1.75;;;22.00;99.90;;;;;;5091687;28;20289;-61
2021/07/13 05:28:16;;;;;;;6.05;2.05;;;22.00;99.90;;;;;;5091621;28;20201;-61
2021/07/13 05:30:45;;;;;;;7.40;1.83;;;22.00;99.90;;;;;;5091848;28;20225;-61
2021/07/13 05:33:14;;;;;;;4.03;1.73;;;22.20;99.90;;;;;;5091629;28;20550;-61
2021/07/13 05:35:42;;;;;;;2.40;1.40;;;22.50;99.90;;;;;;5091622;28;20572;-61
2021/07/13 05:38:09;;;;;;;3.15;1.52;;;22.90;99.90;;;;;;5091729;28;20298;-61
2021/07/13 05:40:36;;;;;;;8.23;1.60;;;23.40;99.90;;;;;;5091948;28;20200;-62
2021/07/13 05:43:03;;;;;;;7.10;1.70;;;23.90;99.90;;;;;;5091892;28;20219;-61
2021/07/13 05:45:32;;;;;;;2.95;1.50;;;24.20;99.90;;;;;;5091229;28;20651;-62
2021/07/13 05:47:58;;;;;;;4.22;1.70;;;24.30;99.90;;;;;;5090654;28;20261;-62
2021/07/13 05:50:25;;;;;;;3.35;1.70;;;24.40;99.90;;;;;;5091694;28;20289;-61
2021/07/13 05:52:52;;;;;;;4.43;1.80;;;24.40;99.90;;;;;;5091153;28;20686;-61
2021/07/13 05:55:19;;;;;;;4.70;2.50;;;24.30;99.90;;;;;;5091684;28;20247;-62
2021/07/13 05:57:46;;;;;;;4.32;1.88;;;24.20;99.90;;;;;;5091627;28;20250;-61
2021/07/13 06:00:13;;;;;;;2.63;1.90;;;24.20;99.90;;;;;;5091479;28;20207;-62
2021/07/13 06:02:41;;;;;;;5.40;2.38;;;24.20;99.90;;;;;;5091287;28;20616;-61
2021/07/13 06:05:09;;;;;;;2.97;1.90;;;24.30;99.90;;;;;;5091624;28;20227;-62
2021/07/13 06:07:42;;;;;;;5.03;2.10;;;24.50;99.90;;;;;;5091707;28;20203;-61
2021/07/13 06:10:09;;;;;;;3.30;1.70;;;24.80;99.90;;;;;;5091508;28;20231;-60
2021/07/13 06:12:36;;;;;;;3.85;2.20;;;24.90;99.90;;;;;;5091834;28;20694;-65
2021/07/13 06:15:02;;;;;;;4.00;2.08;;;24.80;99.90;;;;;;5091435;28;20243;-61
2021/07/13 06:17:29;;;;;;;3.15;2.00;;;24.60;99.90;;;;;;5091354;28;20212;-61
2021/07/13 06:19:57;;;;;;;3.80;2.20;;;24.40;99.90;;;;;;5091194;28;20204;-61
2021/07/13 06:22:24;;;;;;;2.40;1.90;;;24.20;99.90;;;;;;5091015;28;20261;-62
2021/07/13 06:24:50;;;;;;;4.72;2.20;;;24.10;99.90;;;;;;5090746;28;20243;-61
2021/07/13 06:27:17;;;;;;;5.53;2.33;;;23.90;99.90;;;;;;5090753;28;20698;-61
2021/07/13 06:29:44;;;;;;;3.20;2.13;;;23.90;99.90;;;;;;5090642;28;20212;-61
2021/07/13 06:32:11;;;;;;;5.40;2.30;;;23.80;99.90;;;;;;5091121;28;20200;-61
2021/07/13 06:34:38;;;;;;;7.43;2.38;;;23.70;99.90;;;;;;5090819;28;20212;-61
2021/07/13 06:37:06;;;;;;;6.50;2.03;;;23.70;99.90;;;;;;5090810;28;20581;-61
2021/07/13 06:39:33;;;;;;;2.88;2.10;;;23.60;99.90;;;;;;5090592;28;20208;-61
2021/07/13 06:41:59;;;;;;;3.55;1.90;;;23.60;99.90;;;;;;5090795;28;20215;-61
2021/07/13 06:44:27;;;;;;;3.53;2.08;;;23.60;99.90;;;;;;5090689;28;20265;-61
2021/07/13 06:46:53;;;;;;;4.97;2.00;;;23.30;99.90;;;;;;5090989;28;20206;-61
2021/07/13 06:49:20;;;;;;;3.28;1.95;;;23.30;99.90;;;;;;5090498;28;20200;-61
2021/07/13 06:51:47;;;;;;;3.38;2.35;;;23.40;99.90;;;;;;5090703;28;20232;-61
2021/07/13 06:54:15;;;;;;;2.58;1.73;;;23.60;99.90;;;;;;5090762;28;20211;-63
2021/07/13 06:56:42;;;;;;;5.68;1.80;;;23.80;99.90;;;;;;5090303;28;20232;-63
2021/07/13 06:59:08;;;;;;;4.63;2.95;;;24.00;99.90;;;;;;5092405;28;20219;-63
2021/07/13 07:01:35;;;;;;;3.50;2.33;;;24.10;99.90;;;;;;5094696;28;20207;-63
2021/07/13 07:04:02;;;;;;;4.65;2.00;;;24.20;99.90;;;;;;5094874;28;20204;-63
2021/07/13 07:06:29;;;;;;;6.43;2.40;;;24.00;99.90;;;;;;5094907;28;20224;-63
2021/07/13 07:08:56;;;;;;;4.40;2.20;;;23.90;99.90;;;;;;5094760;28;20220;-63
2021/07/13 07:11:24;;;;;;;4.13;2.20;;;23.80;99.90;;;;;;5094213;28;20231;-63
2021/07/13 07:13:51;;;;;;;5.05;2.30;;;23.70;99.90;;;;;;5094460;28;20204;-61
2021/07/13 07:16:18;;;;;;;5.15;2.20;;;23.60;99.90;;;;;;5094476;28;20313;-61
2021/07/13 07:18:44;;;;;;;3.85;2.15;;;23.60;99.90;;;;;;5094019;28;20200;-63
2021/07/13 07:21:12;;;;;;;5.47;2.33;;;23.40;99.90;;;;;;5094075;28;20196;-62
2021/07/13 07:23:39;;;;;;;5.03;2.45;;;23.30;99.90;;;;;;5093773;28;20204;-62
2021/07/13 07:26:06;;;;;;;5.28;2.55;;;23.10;99.90;;;;;;5093752;28;20719;-62
2021/07/13 07:28:34;;;;;;;6.35;2.78;;;23.00;99.90;;;;;;5094027;28;20204;-62
2021/07/13 07:31:01;;;;;;;4.35;2.55;;;22.80;99.90;;;;;;5093922;28;20219;-63
2021/07/13 07:33:27;;;;;;;5.95;2.55;;;22.70;99.90;;;;;;5094219;28;20620;-63
2021/07/13 07:35:54;;;;;;;3.22;2.35;;;22.60;99.90;;;;;;5093898;28;20605;-63
2021/07/13 07:38:21;;;;;;;5.60;2.80;;;22.40;99.90;;;;;;5093480;28;20211;-62
2021/07/13 07:40:48;;;;;;;3.47;2.40;;;22.40;99.90;;;;;;5093896;28;20628;-62
2021/07/13 07:43:14;;;;;;;4.10;2.97;;;22.40;99.90;;;;;;5093952;28;20208;-62
2021/07/13 07:45:42;;;;;;;6.85;3.20;;;22.50;99.90;;;;;;5093473;28;20224;-62
2021/07/13 07:48:09;;;;;;;5.32;3.03;;;22.40;99.90;;;;;;5093555;28;20204;-63
2021/07/13 07:50:36;;;;;;;4.57;3.20;;;22.30;99.90;;;;;;5093349;28;20651;-62
2021/07/13 07:53:03;;;;;;;7.82;4.32;;;22.30;99.90;;;;;;5093560;28;20212;-63
2021/07/13 07:55:32;;;;;;;4.70;3.85;;;22.20;99.90;;;;;;5093656;28;20232;-63
2021/07/13 07:57:59;;;;;;;6.28;3.92;;;22.20;99.90;;;;;;5093732;28;20625;-64
2021/07/13 08:00:26;;;;;;;5.05;4.47;;;22.20;99.90;;;;;;5093530;28;20204;-63
2021/07/13 08:02:54;;;;;;;5.43;4.47;;;22.10;99.90;;;;;;5093277;28;20235;-62
2021/07/13 08:05:24;;;;;;;7.07;5.47;;;22.10;99.90;;;;;;5093076;28;20624;-63
2021/07/13 08:07:51;;;;;;;8.70;5.20;;;22.00;99.90;;;;;;5093379;28;20307;-63
2021/07/13 08:10:18;;;;;;;5.85;4.65;;;21.90;99.90;;;;;;5092612;28;20231;-63
2021/07/13 08:12:45;;;;;;;5.32;4.57;;;21.90;99.90;;;;;;5093255;28;20211;-63
2021/07/13 08:15:14;;;;;;;8.35;5.20;;;21.70;99.90;;;;;;5093095;28;20324;-62
2021/07/13 08:17:41;;;;;;;6.45;5.63;;;21.50;99.90;;;;;;5092943;28;20207;-62
2021/07/13 08:20:13;;;;;;;6.85;5.63;;;21.20;99.90;;;;;;5093011;28;20670;-63
2021/07/13 08:22:43;;;;;;;11.73;6.85;;;21.30;99.90;;;;;;5093100;28;20295;-66
2021/07/13 08:25:10;;;;;;;8.25;6.15;;;21.50;99.90;;;;;;5093192;28;20244;-63
2021/07/13 08:27:37;;;;;;;10.00;5.50;;;21.60;99.90;;;;;;5092937;28;20264;-65
2021/07/13 08:30:04;;;;;;;6.32;4.95;;;21.70;99.90;;;;;;5092916;28;20258;-64
2021/07/13 08:32:31;;;;;;;6.45;4.82;;;21.70;99.90;;;;;;5092637;28;20200;-64
2021/07/13 08:34:58;;;;;;;7.78;5.55;;;21.80;99.90;;;;;;5080387;28;20564;-64
2021/07/13 08:37:27;;;;;;;6.05;4.88;;;21.80;99.90;;;;;;5072209;28;20212;-64
2021/07/13 08:39:54;;;;;;;6.63;3.25;;;21.80;99.90;;;;;;5072346;28;20209;-64
2021/07/13 08:42:21;;;;;;;4.63;2.38;;;21.90;99.90;;;;;;5072389;28;20201;-66
2021/07/13 08:44:48;;;;;;;5.32;2.85;;;21.90;99.90;;;;;;5072512;28;20237;-65
2021/07/13 08:47:16;;;;;;;3.85;2.80;;;22.00;99.90;;;;;;5072628;28;20209;-67
2021/07/13 08:49:43;;;;;;;3.03;1.98;;;22.10;99.90;;;;;;5072426;28;20292;-64
2021/07/13 08:52:10;;;;;;;4.70;2.10;;;22.10;99.90;;;;;;5072154;28;20312;-64
2021/07/13 08:54:39;;;;;;;3.03;2.20;;;22.30;99.90;;;;;;5071787;28;20212;-65
2021/07/13 08:57:08;;;;;;;6.22;2.42;;;22.50;99.90;;;;;;5071957;28;20677;-64
2021/07/13 08:59:35;;;;;;;3.63;2.38;;;22.70;99.90;;;;;;5071781;28;20231;-65
2021/07/13 09:02:02;;;;;;;5.57;4.10;;;22.80;99.90;;;;;;5071916;28;20205;-65
2021/07/13 09:04:35;;;;;;;5.20;3.22;;;22.80;99.90;;;;;;5071569;28;20225;-61
2021/07/13 09:07:06;;;;;;;8.48;3.33;;;22.80;99.90;;;;;;5071635;28;20213;-61
2021/07/13 09:09:35;;;;;;;4.10;3.33;;;22.70;99.90;;;;;;5071547;28;20553;-64
2021/07/13 09:12:15;;;;;;;6.28;3.50;;;22.70;99.90;;;;;;5071455;28;20228;-59
2021/07/13 09:14:56;;;;;;;7.82;2.72;;;22.80;99.90;;;;;;5071616;28;20211;-60
2021/07/13 09:17:35;;;;;;;7.80;3.00;;;22.80;99.90;;;;;;5071907;28;20300;-61
2021/07/13 09:20:21;;;;;;;6.78;2.90;;;22.90;99.90;;;;;;5071515;28;20205;-62
2021/07/13 09:22:58;;;;;;;4.03;2.00;;;22.80;99.90;;;;;;5070700;28;20209;-65
2021/07/13 09:25:29;;;;;;;1.58;1.00;;;22.50;99.90;;;;;;5072909;28;20661;-63
2021/07/13 09:28:22;;;;;;;1.45;0.68;;;22.10;99.90;;;;;;5072434;28;20212;-63
2021/07/13 09:30:50;;;;;;;1.95;0.50;;;21.80;99.90;;;;;;5047971;28;20278;-63
2021/07/13 09:33:19;;;;;;;2.13;0.73;;;21.60;99.90;;;;;;5072280;28;20205;-61
2021/07/13 09:36:04;;;;;;;1.27;0.70;;;21.50;99.90;;;;;;5071566;28;20228;-62
2021/07/13 09:38:32;;;;;;;0.28;0.20;;;21.50;99.90;;;;;;5071095;28;20229;-64
2021/07/13 09:41:09;;;;;;;4.07;1.10;;;21.20;99.90;;;;;;5071433;28;20229;-63
2021/07/13 09:43:41;;;;;;;0.50;0.30;;;21.00;99.90;;;;;;5071688;28;20201;-64
2021/07/13 09:46:30;;;;;;;2.83;0.60;;;20.90;99.90;;;;;;5071160;28;20236;-63
2021/07/13 09:49:07;;;;;;;2.25;0.55;;;20.70;99.90;;;;;;5070946;28;20673;-62
2021/07/13 09:51:34;;;;;;;0.40;0.30;;;20.70;99.90;;;;;;5070863;28;20278;-63
2021/07/13 09:54:01;;;;;;;2.13;0.50;;;20.60;99.90;;;;;;5071232;28;20629;-62
2021/07/13 09:56:38;;;;;;;0.88;0.30;;;20.50;99.90;;;;;;5070698;28;20280;-63
2021/07/13 09:59:06;;;;;;;2.58;0.40;;;20.30;99.90;;;;;;5070504;28;20218;-64
2021/07/13 10:01:34;;;;;;;1.63;0.80;;;20.10;99.90;;;;;;5070883;28;20201;-62
2021/07/13 10:04:01;;;;;;;2.80;1.00;;;19.90;99.90;;;;;;5070981;28;20244;-63
2021/07/13 10:06:29;;;;;;;2.50;0.65;;;19.80;99.90;;;;;;5070939;28;20315;-63
2021/07/13 10:08:58;;;;;;;1.27;0.50;;;19.80;99.90;;;;;;5070553;28;20270;-63
2021/07/13 10:11:25;;;;;;;0.88;0.50;;;19.70;99.90;;;;;;5070390;28;20758;-62
2021/07/13 10:13:52;;;;;;;3.05;0.77;;;19.60;99.90;;;;;;5070470;28;20205;-63
2021/07/13 10:16:21;;;;;;;1.25;0.50;;;19.40;99.90;;;;;;5070471;28;20590;-63
2021/07/13 10:18:48;;;;;;;0.60;0.45;;;19.40;99.90;;;;;;5070357;28;20213;-63
2021/07/13 10:21:15;;;;;;;1.73;0.98;;;19.50;99.90;;;;;;5070906;28;20247;-63
2021/07/13 10:23:44;;;;;;;3.75;1.40;;;19.80;99.90;;;;;;5070620;28;20212;-63
2021/07/13 10:26:11;;;;;;;3.22;2.00;;;20.40;99.90;;;;;;5070477;28;20700;-63
2021/07/13 10:28:39;;;;;;;1.65;0.30;;;21.30;99.90;;;;;;5070421;28;20263;-63
2021/07/13 10:31:06;;;;;;;3.28;0.63;;;22.30;99.90;;;;;;5070578;28;20248;-63
2021/07/13 10:33:36;;;;;;;1.05;0.55;;;22.90;99.90;;;;;;5073130;28;20207;-63
2021/07/13 10:36:31;;;;;;;1.08;0.50;;;23.00;99.90;;;;;;5075029;28;20232;-63
2021/07/13 10:39:30;;;;;;;1.17;0.55;;;22.80;99.90;;;;;;5074373;28;20645;-63
2021/07/13 10:41:58;;;;;;;1.38;0.82;;;22.40;99.90;;;;;;5074560;28;20201;-63
2021/07/13 10:44:41;;;;;;;1.20;0.60;;;22.10;99.90;;;;;;5071611;28;20209;-64
2021/07/13 10:47:26;;;;;;;1.40;0.20;;;21.80;99.90;;;;;;5074174;28;20308;-65
2021/07/13 10:50:30;;;;;;;0.93;0.40;;;21.60;99.90;;;;;;5074278;28;20291;-66
2021/07/13 10:52:59;;;;;;;1.75;0.45;;;21.50;99.90;;;;;;5074012;28;20302;-65
2021/07/13 10:55:55;;;;;;;0.98;0.50;;;21.30;99.90;;;;;;5073878;28;20742;-64
2021/07/13 10:58:54;;;;;;;0.60;0.47;;;21.00;99.90;;;;;;5074063;28;20597;-63
2021/07/13 11:01:32;;;;;;;1.60;0.60;;;20.80;99.90;;;;;;5049806;28;20201;-65
2021/07/13 11:04:04;;;;;;;2.80;0.70;;;20.60;99.90;;;;;;5074418;28;20243;-65
2021/07/13 11:06:44;;;;;;;0.85;0.45;;;20.50;99.90;;;;;;5074000;28;20231;-65
2021/07/13 11:09:39;;;;;;;1.70;0.60;;;20.40;99.90;;;;;;5074127;28;20205;-66
2021/07/13 11:12:10;;;;;;;1.63;0.60;;;20.30;99.90;;;;;;5074500;28;20229;-63
2021/07/13 11:14:55;;;;;;;1.05;0.70;;;20.30;99.90;;;;;;5074098;28;20227;-63
2021/07/13 11:17:24;;;;;;;5.90;0.77;;;20.40;99.90;;;;;;5074131;28;20205;-65
2021/07/13 11:19:50;;;;;;;3.80;0.95;;;20.80;99.90;;;;;;5073943;28;20208;-63
2021/07/13 11:22:19;;;;;;;4.50;1.10;;;21.30;99.90;;;;;;5074212;28;20201;-63
2021/07/13 11:24:47;;;;;;;3.13;1.13;;;21.70;99.90;;;;;;5073685;28;20248;-64
2021/07/13 11:27:17;;;;;;;2.15;1.17;;;21.90;99.90;;;;;;5073723;28;20209;-63
2021/07/13 11:29:52;;;;;;;2.42;0.65;;;22.20;99.90;;;;;;5073758;28;20209;-64
2021/07/13 11:32:19;;;;;;;1.23;0.60;;;22.60;99.90;;;;;;5074362;28;20228;-64
2021/07/13 11:34:46;;;;;;;2.53;0.65;;;22.90;99.90;;;;;;5074113;28;20731;-64
2021/07/13 11:37:12;;;;;;;2.53;0.57;;;23.00;99.90;;;;;;5074161;28;20212;-64
2021/07/13 11:39:40;;;;;;;0.63;0.40;;;23.00;99.90;;;;;;5073643;28;20217;-64
2021/07/13 11:42:10;;;;;;;7.70;6.13;;;22.90;99.90;;;;;;5073568;28;20669;-64
2021/07/13 11:44:38;;;;;;;1.80;0.60;;;22.70;99.90;;;;;;5072277;28;20201;-64
2021/07/13 11:47:09;;;;;;;1.20;0.70;;;22.60;99.90;;;;;;5073447;28;20213;-64
2021/07/13 11:49:37;;;;;;;0.77;0.50;;;22.50;99.90;;;;;;5073330;28;20220;-64
2021/07/13 11:52:06;;;;;;;0.80;0.45;;;22.30;99.90;;;;;;5073096;28;20723;-64
2021/07/13 11:54:33;;;;;;;1.15;0.38;;;22.30;99.90;;;;;;5073166;28;20209;-64
2021/07/13 11:57:02;;;;;;;0.70;0.30;;;22.20;99.90;;;;;;5073323;28;20205;-64
2021/07/13 11:59:31;;;;;;;1.60;0.60;;;22.30;99.90;;;;;;5073135;28;20688;-63
2021/07/13 12:01:59;;;;;;;5.40;2.97;;;22.50;99.90;;;;;;5073188;28;20205;-63
2021/07/13 12:04:27;;;;;;;3.15;1.50;;;22.70;99.90;;;;;;5072473;28;20687;-63
2021/07/13 12:06:55;;;;;;;0.95;0.40;;;23.00;99.90;;;;;;5072996;28;20209;-64
2021/07/13 12:09:28;;;;;;;2.08;0.40;;;23.20;99.90;;;;;;5073002;28;20220;-66
2021/07/13 12:11:55;;;;;;;0.60;0.32;;;23.30;99.90;;;;;;5073166;28;20228;-63
2021/07/13 12:14:24;;;;;;;0.40;0.35;;;23.50;99.90;;;;;;5072859;28;20266;-64
2021/07/13 12:16:55;;;;;;;2.38;0.43;;;23.60;99.90;;;;;;5072891;28;20205;-64
2021/07/13 12:19:23;;;;;;;2.17;0.68;;;23.60;99.90;;;;;;5072587;28;20258;-64
2021/07/13 12:21:52;;;;;;;2.45;0.98;;;23.80;99.90;;;;;;5072835;28;20604;-64
2021/07/13 12:24:21;;;;;;;1.80;0.63;;;23.90;99.90;;;;;;5072874;28;20236;-64
2021/07/13 12:26:50;;;;;;;4.70;1.10;;;24.00;99.90;;;;;;5072164;28;20233;-63
2021/07/13 12:29:18;;;;;;;2.78;1.05;;;24.10;99.90;;;;;;5072391;28;20205;-64
2021/07/13 12:31:55;;;;;;;1.30;0.75;;;24.30;99.90;;;;;;5071941;28;20292;-64
2021/07/13 12:34:23;;;;;;;2.75;0.80;;;24.50;99.90;;;;;;5072168;28;20212;-64
2021/07/13 12:36:51;;;;;;;0.73;0.60;;;24.50;99.90;;;;;;5072432;28;20212;-64
2021/07/13 12:39:19;;;;;;;2.22;0.75;;;24.50;99.90;;;;;;5072190;28;20211;-65
2021/07/13 12:41:47;;;;;;;1.27;0.63;;;24.40;99.90;;;;;;5072137;28;20204;-65
2021/07/13 12:44:30;;;;;;;1.05;0.50;;;24.40;99.90;;;;;;5072032;28;20211;-64
2021/07/13 12:47:29;;;;;;;1.10;0.60;;;24.20;99.90;;;;;;5072497;28;20587;-64
2021/07/13 12:50:14;;;;;;;0.60;0.38;;;24.10;99.90;;;;;;5072204;28;20205;-65
2021/07/13 12:52:44;;;;;;;1.08;0.40;;;23.80;99.90;;;;;;5072069;28;20232;-64
2021/07/13 12:55:14;;;;;;;1.80;0.60;;;23.70;99.90;;;;;;5072112;28;20225;-65
2021/07/13 12:57:43;;;;;;;4.38;0.60;;;23.50;99.90;;;;;;5071741;28;20681;-64
2021/07/13 13:00:16;;;;;;;2.67;0.77;;;23.40;99.90;;;;;;5072021;28;20296;-64